Almyros — 9HA2510 — position and weather

sailwx.info

Track history (hours):
 
Tides and Currents Weather Stations Pressure Air Temp Water Temp Dewpoint Dewpoint Depression Visibility Wind Speed Wind Dir Waves Ship Positions

Almyros

Last reported at 2017-Nov-24 02:27 UTC. Time now 2018-Jan-23 18:16 UTC.
Position N 01°17' E 103°22'.
Warning: this ship's position is months out of date.

Length 189 m; draft 12.9 m.

Type: Cargo ship. MMSI: 248779000.

Date/timePositionNaut miles runAvg speedWind from/ knotsBaromVisibWave heightAir tempDewpointWater temp
2017-Nov-24 02:27N 01°17' E 103°22'511.5
2017-Nov-24 01:59N 01°14' E 103°26'611.9
2017-Nov-24 01:30N 01°13' E 103°32'612.4
2017-Nov-24 01:00N 01°11' E 103°38'611.7
2017-Nov-24 00:30N 01°09' E 103°43'511.0
2017-Nov-24 00:00N 01°10' E 103°48'612.9
2017-Nov-23 23:30N 01°13' E 103°54'612.0
2017-Nov-23 23:00N 01°16' E 103°59'0 0.1
2017-Nov-23 13:45N 01°16' E 103°59'1 2.3
2017-Nov-23 13:29N 01°16' E 103°59'  
Track history (hours):
 
Tides and Currents Weather Stations Pressure Air Temp Water Temp Dewpoint Dewpoint Depression Visibility Wind Speed Wind Dir Waves Ship Positions

Almyros

Last reported at 2017-Nov-24 02:27 UTC. Time now 2018-Jan-23 18:16 UTC.
Position N 01°17' E 103°22'.
Warning: this ship's position is months out of date.

Length 189 m; draft 12.9 m.

Type: Cargo ship. MMSI: 248779000.

Date/timePositionNaut miles runAvg speedWind from/ knotsBaromVisibWave heightAir tempDewpointWater temp
2017-Nov-24 02:27N 01°17' E 103°22'511.5
2017-Nov-24 01:59N 01°14' E 103°26'611.9
2017-Nov-24 01:30N 01°13' E 103°32'612.4
2017-Nov-24 01:00N 01°11' E 103°38'611.7
2017-Nov-24 00:30N 01°09' E 103°43'511.0
2017-Nov-24 00:00N 01°10' E 103°48'612.9
2017-Nov-23 23:30N 01°13' E 103°54'612.0
2017-Nov-23 23:00N 01°16' E 103°59'0 0.1
2017-Nov-23 13:45N 01°16' E 103°59'1 2.3
2017-Nov-23 13:29N 01°16' E 103°59'  

Dump ship's entire track history